createdAt,value
2018-12-15T00:01:56.786Z,43.30
2018-12-15T00:04:24.019Z,43.30
2018-12-15T00:06:51.235Z,43.40
2018-12-15T00:09:18.460Z,43.20
2018-12-15T00:11:45.677Z,43.10
2018-12-15T00:14:12.895Z,43.10
2018-12-15T00:16:40.118Z,43.20
2018-12-15T00:19:07.331Z,43.00
2018-12-15T00:21:34.545Z,43.10
2018-12-15T00:24:02.585Z,43.20
2018-12-15T00:26:29.808Z,43.10
2018-12-15T00:28:57.024Z,43.10
2018-12-15T00:31:24.247Z,43.10
2018-12-15T00:33:51.500Z,43.70
2018-12-15T00:36:18.765Z,43.00
2018-12-15T00:38:45.991Z,43.40
2018-12-15T00:41:13.244Z,43.00
2018-12-15T00:43:41.259Z,42.60
2018-12-15T00:46:08.484Z,42.70
2018-12-15T00:48:35.710Z,42.60
2018-12-15T00:51:03.959Z,42.70
2018-12-15T00:53:32.134Z,42.80
2018-12-15T00:56:00.765Z,43.00
2018-12-15T00:58:28.602Z,43.00
2018-12-15T01:00:56.785Z,42.80
2018-12-15T01:03:24.936Z,42.70
2018-12-15T01:05:52.158Z,43.10
2018-12-15T01:08:20.291Z,43.10
2018-12-15T01:10:48.440Z,42.90
2018-12-15T01:13:16.538Z,42.70
2018-12-15T01:15:44.683Z,43.00
2018-12-15T01:18:13.219Z,42.90
2018-12-15T01:20:41.232Z,42.80
2018-12-15T01:23:09.270Z,42.70
2018-12-15T01:25:37.369Z,42.80
2018-12-15T01:28:05.505Z,43.00
2018-12-15T01:30:33.646Z,43.00
2018-12-15T01:33:02.893Z,42.70
2018-12-15T01:35:31.885Z,42.80
2018-12-15T01:37:59.108Z,42.80
2018-12-15T01:40:27.320Z,42.60
2018-12-15T01:42:54.792Z,42.80
2018-12-15T01:45:22.851Z,42.90
2018-12-15T01:47:50.859Z,42.60
2018-12-15T01:50:18.114Z,42.80
2018-12-15T01:52:46.298Z,42.80
2018-12-15T01:55:14.469Z,42.50
2018-12-15T01:57:42.477Z,42.60
2018-12-15T02:00:10.656Z,42.60
2018-12-15T02:02:38.856Z,42.40
2018-12-15T02:05:06.874Z,42.70
2018-12-15T02:07:34.094Z,42.60
2018-12-15T02:10:01.858Z,42.50
2018-12-15T02:12:29.074Z,42.50
2018-12-15T02:14:56.295Z,42.70
2018-12-15T02:17:24.366Z,42.80
2018-12-15T02:19:52.536Z,42.50
2018-12-15T02:22:20.681Z,42.40
2018-12-15T02:24:48.860Z,42.30
2018-12-15T02:27:16.993Z,42.30
2018-12-15T02:29:45.191Z,42.40
2018-12-15T02:32:13.179Z,42.60
2018-12-15T02:34:41.348Z,42.30
2018-12-15T02:37:09.475Z,42.10
2018-12-15T02:39:37.776Z,42.40
2018-12-15T02:42:05.455Z,42.20
2018-12-15T02:44:33.593Z,42.20
2018-12-15T02:47:02.821Z,42.40
2018-12-15T02:49:31.763Z,42.10
2018-12-15T02:51:59.931Z,42.50
2018-12-15T02:54:28.152Z,42.20
2018-12-15T02:56:56.206Z,42.00
2018-12-15T02:59:24.271Z,42.00
2018-12-15T03:01:52.320Z,41.90
2018-12-15T03:04:20.477Z,41.70
2018-12-15T03:06:47.699Z,41.90
2018-12-15T03:09:15.728Z,42.10
2018-12-15T03:11:43.936Z,42.80
2018-12-15T03:14:12.000Z,42.50
2018-12-15T03:16:42.170Z,42.30
2018-12-15T03:19:10.490Z,42.60
2018-12-15T03:21:38.512Z,42.30
2018-12-15T03:24:06.651Z,42.70
2018-12-15T03:26:34.837Z,42.50
2018-12-15T03:29:02.982Z,42.50
2018-12-15T03:31:34.413Z,42.30
2018-12-15T03:34:02.776Z,42.30
2018-12-15T03:36:31.618Z,42.60
2018-12-15T03:38:58.849Z,42.60
2018-12-15T03:41:27.013Z,42.90
2018-12-15T03:43:55.179Z,42.60
2018-12-15T03:46:23.361Z,42.40
2018-12-15T03:48:51.515Z,42.40
2018-12-15T03:51:19.561Z,42.40
2018-12-15T03:53:47.694Z,42.40
2018-12-15T03:56:15.835Z,42.40
2018-12-15T03:58:44.006Z,42.40
2018-12-15T04:01:11.215Z,42.20
2018-12-15T04:03:39.360Z,42.10
2018-12-15T04:06:07.494Z,42.30
2018-12-15T04:08:35.749Z,42.20
2018-12-15T04:11:02.960Z,42.30
2018-12-15T04:13:31.856Z,42.30
2018-12-15T04:15:59.077Z,42.50
2018-12-15T04:18:26.309Z,42.10
2018-12-15T04:20:53.529Z,42.10
2018-12-15T04:23:20.743Z,42.20
2018-12-15T04:25:47.968Z,42.50
2018-12-15T04:28:15.190Z,42.20
2018-12-15T04:30:43.234Z,42.20
2018-12-15T04:33:11.410Z,42.00
2018-12-15T04:35:38.629Z,42.00
2018-12-15T04:38:05.858Z,42.20
2018-12-15T04:40:34.209Z,42.00
2018-12-15T04:43:02.306Z,42.40
2018-12-15T04:45:30.374Z,42.50
2018-12-15T04:47:57.617Z,42.30
2018-12-15T04:50:25.676Z,42.80
2018-12-15T04:52:53.813Z,42.20
2018-12-15T04:55:21.955Z,42.20
2018-12-15T04:57:49.212Z,42.30
2018-12-15T05:00:16.438Z,42.30
2018-12-15T05:02:44.118Z,42.20
2018-12-15T05:05:11.608Z,42.20
2018-12-15T05:07:39.793Z,42.00
2018-12-15T05:10:07.016Z,41.90
2018-12-15T05:12:34.304Z,41.80
2018-12-15T05:15:02.046Z,41.80
2018-12-15T05:17:31.018Z,41.80
2018-12-15T05:19:59.168Z,42.20
2018-12-15T05:22:26.398Z,41.90
2018-12-15T05:24:54.547Z,42.10
2018-12-15T05:27:21.856Z,41.80
2018-12-15T05:29:50.070Z,42.20
2018-12-15T05:32:18.164Z,42.50
2018-12-15T05:34:46.198Z,42.10
2018-12-15T05:37:13.442Z,42.10
2018-12-15T05:39:41.574Z,42.00
2018-12-15T05:42:09.615Z,41.80
2018-12-15T05:44:36.833Z,42.40
2018-12-15T05:47:04.054Z,42.20
2018-12-15T05:49:31.951Z,42.10
2018-12-15T05:51:59.977Z,42.20
2018-12-15T05:54:28.147Z,42.20
2018-12-15T05:56:56.349Z,42.30
2018-12-15T05:59:23.569Z,42.40
2018-12-15T06:01:50.800Z,42.00
2018-12-15T06:04:18.085Z,42.10
2018-12-15T06:06:45.307Z,42.90
2018-12-15T06:09:13.461Z,42.20
2018-12-15T06:11:41.614Z,42.80
2018-12-15T06:14:09.780Z,42.40
2018-12-15T06:16:37.006Z,42.40
2018-12-15T06:19:05.027Z,42.10
2018-12-15T06:21:32.245Z,42.50
2018-12-15T06:24:00.740Z,41.90
2018-12-15T06:26:27.987Z,42.20
2018-12-15T06:28:55.290Z,42.80
2018-12-15T06:31:22.499Z,42.20
2018-12-15T06:33:49.729Z,42.00
2018-12-15T06:36:17.027Z,41.80
2018-12-15T06:38:44.244Z,41.90
2018-12-15T06:41:11.457Z,42.20
2018-12-15T06:43:38.748Z,42.20
2018-12-15T06:46:06.141Z,42.40
2018-12-15T06:48:38.205Z,42.10
2018-12-15T06:51:02.633Z,42.00
2018-12-15T06:53:29.858Z,41.90
2018-12-15T06:55:57.082Z,42.00
2018-12-15T06:58:25.203Z,42.00
2018-12-15T07:00:52.413Z,42.10
2018-12-15T07:03:19.625Z,42.00
2018-12-15T07:05:46.838Z,41.70
2018-12-15T07:08:14.060Z,41.60
2018-12-15T07:10:41.280Z,41.90
2018-12-15T07:13:08.507Z,41.60
2018-12-15T07:15:35.732Z,41.60
2018-12-15T07:18:03.835Z,41.70
2018-12-15T07:20:31.901Z,41.60
2018-12-15T07:22:59.130Z,41.60
2018-12-15T07:25:35.709Z,41.60
2018-12-15T07:28:02.977Z,41.90
2018-12-15T07:30:30.390Z,41.80
2018-12-15T07:32:57.764Z,41.80
2018-12-15T07:35:24.984Z,42.10
2018-12-15T07:37:53.299Z,41.60
2018-12-15T07:40:20.525Z,41.80
2018-12-15T07:42:47.752Z,42.00
2018-12-15T07:45:14.972Z,41.90
2018-12-15T07:47:42.202Z,41.60
2018-12-15T07:50:09.406Z,42.00
2018-12-15T07:52:36.623Z,41.80
2018-12-15T07:55:04.016Z,41.80
2018-12-15T07:57:32.259Z,42.00
2018-12-15T07:59:59.477Z,42.10
2018-12-15T08:02:26.680Z,41.90
2018-12-15T08:04:54.805Z,42.20
2018-12-15T08:07:21.995Z,41.70
2018-12-15T08:09:50.692Z,41.90
2018-12-15T08:12:23.698Z,41.80
2018-12-15T08:14:50.947Z,41.90
2018-12-15T08:17:18.209Z,41.90
2018-12-15T08:19:45.415Z,41.90
2018-12-15T08:22:12.728Z,42.50
2018-12-15T08:24:40.087Z,41.80
2018-12-15T08:27:08.245Z,41.80
2018-12-15T08:29:35.459Z,42.20
2018-12-15T08:32:02.669Z,41.80
2018-12-15T08:34:29.889Z,42.10
2018-12-15T08:36:57.098Z,42.00
2018-12-15T08:39:24.315Z,42.10
2018-12-15T08:41:51.571Z,42.00
2018-12-15T08:44:18.826Z,42.10
2018-12-15T08:46:46.078Z,42.00
2018-12-15T08:49:13.295Z,42.00
2018-12-15T08:51:40.558Z,41.90
2018-12-15T08:54:08.680Z,41.90
2018-12-15T08:56:35.926Z,42.20
2018-12-15T08:59:03.140Z,42.00
2018-12-15T09:01:30.399Z,41.60
2018-12-15T09:03:57.619Z,41.80
2018-12-15T09:06:24.838Z,41.70
2018-12-15T09:08:52.053Z,41.90
2018-12-15T09:11:20.197Z,42.10
2018-12-15T09:13:47.423Z,41.80
2018-12-15T09:16:14.639Z,41.70
2018-12-15T09:18:41.852Z,41.50
2018-12-15T09:21:09.923Z,41.60
2018-12-15T09:23:37.189Z,41.60
2018-12-15T09:26:04.453Z,41.80
2018-12-15T09:28:32.527Z,41.70
2018-12-15T09:30:59.750Z,41.70
2018-12-15T09:33:27.931Z,41.80
2018-12-15T09:35:55.225Z,41.60
2018-12-15T09:41:06.339Z,41.90
2018-12-15T09:43:34.497Z,41.80
2018-12-15T09:46:02.647Z,41.80
2018-12-15T09:48:29.923Z,41.70
2018-12-15T09:50:57.131Z,41.80
2018-12-15T09:53:24.349Z,41.60
2018-12-15T09:55:51.593Z,41.60
2018-12-15T09:58:19.735Z,42.00
2018-12-15T10:00:47.015Z,41.70
2018-12-15T10:03:14.325Z,41.90
2018-12-15T10:05:41.539Z,41.70
2018-12-15T10:08:08.818Z,41.80
2018-12-15T10:10:36.035Z,41.80
2018-12-15T10:13:03.259Z,42.10
2018-12-15T10:15:32.099Z,41.80
2018-12-15T10:17:59.319Z,41.70
2018-12-15T10:20:27.578Z,41.70
2018-12-15T10:22:55.552Z,41.80
2018-12-15T10:25:23.785Z,41.90
2018-12-15T10:27:51.022Z,41.70
2018-12-15T10:30:23.970Z,41.60
2018-12-15T10:32:53.260Z,41.60
2018-12-15T10:35:20.996Z,41.50
2018-12-15T10:37:48.244Z,41.50
2018-12-15T10:40:16.442Z,41.40
2018-12-15T10:42:43.674Z,42.00
2018-12-15T10:45:11.092Z,41.80
2018-12-15T10:47:38.878Z,41.50
2018-12-15T10:50:07.234Z,42.10
2018-12-15T10:52:34.672Z,41.60
2018-12-15T10:55:02.500Z,41.50
2018-12-15T10:57:29.709Z,41.60
2018-12-15T10:59:58.423Z,41.40
2018-12-15T11:02:25.676Z,41.50
2018-12-15T11:04:52.887Z,41.60
2018-12-15T11:07:20.913Z,41.40
2018-12-15T11:09:48.142Z,42.30
2018-12-15T11:12:15.360Z,41.50
2018-12-15T11:14:42.609Z,41.70
2018-12-15T11:17:09.827Z,41.60
2018-12-15T11:19:37.357Z,41.60
2018-12-15T11:22:04.654Z,41.50
2018-12-15T11:24:32.341Z,41.60
2018-12-15T11:26:59.549Z,41.80
2018-12-15T11:29:27.612Z,41.70
2018-12-15T11:31:54.833Z,41.50
2018-12-15T11:34:22.972Z,41.70
2018-12-15T11:36:50.193Z,41.50
2018-12-15T11:39:18.192Z,41.70
2018-12-15T11:41:46.392Z,41.60
2018-12-15T11:44:13.617Z,41.60
2018-12-15T11:46:40.882Z,41.90
2018-12-15T11:49:08.105Z,41.90
2018-12-15T11:51:35.335Z,41.70
2018-12-15T11:54:02.557Z,41.80
2018-12-15T11:56:29.784Z,41.90
2018-12-15T11:58:57.020Z,42.00
2018-12-15T12:01:24.242Z,42.00
2018-12-15T12:03:51.538Z,42.70
2018-12-15T12:06:18.811Z,42.00
2018-12-15T12:08:46.068Z,42.40
2018-12-15T12:11:14.111Z,42.10
2018-12-15T12:13:41.357Z,42.30
2018-12-15T12:16:08.572Z,42.30
2018-12-15T12:18:35.859Z,42.50
2018-12-15T12:21:03.066Z,42.50
2018-12-15T12:23:30.568Z,42.50
2018-12-15T12:25:58.949Z,42.50
2018-12-15T12:28:26.171Z,42.80
2018-12-15T12:30:53.421Z,43.30
2018-12-15T12:33:20.712Z,42.70
2018-12-15T12:35:48.792Z,42.70
2018-12-15T12:38:16.985Z,42.50
2018-12-15T12:40:45.155Z,42.60
2018-12-15T12:43:13.172Z,42.30
2018-12-15T12:45:41.183Z,42.80
2018-12-15T12:48:09.340Z,42.50
2018-12-15T12:50:37.506Z,42.40
2018-12-15T12:53:04.719Z,42.20
2018-12-15T12:55:32.045Z,42.00
2018-12-15T12:58:00.572Z,41.80
2018-12-15T13:00:27.855Z,41.50
2018-12-15T13:02:55.307Z,41.90
2018-12-15T13:05:23.384Z,41.70
2018-12-15T13:07:50.612Z,41.40
2018-12-15T13:10:17.892Z,41.50
2018-12-15T13:12:45.086Z,41.40
2018-12-15T13:15:12.327Z,41.40
2018-12-15T13:17:39.547Z,41.20
2018-12-15T13:20:07.793Z,41.00
2018-12-15T13:22:35.003Z,41.20
2018-12-15T13:25:03.051Z,41.20
2018-12-15T13:27:30.715Z,41.20
2018-12-15T13:29:58.852Z,41.60
2018-12-15T13:32:26.082Z,41.10
2018-12-15T13:34:54.080Z,41.20
2018-12-15T13:37:22.210Z,41.40
2018-12-15T13:39:49.466Z,41.10
2018-12-15T13:42:17.599Z,41.10
2018-12-15T13:44:44.846Z,41.90
2018-12-15T13:47:16.188Z,41.20
2018-12-15T13:49:43.441Z,41.10
2018-12-15T13:52:10.713Z,41.90
2018-12-15T13:54:38.033Z,41.10
2018-12-15T13:57:05.246Z,41.00
2018-12-15T13:59:32.465Z,41.20
2018-12-15T14:01:59.682Z,41.10
2018-12-15T14:04:26.900Z,42.20
2018-12-15T14:06:54.119Z,41.70
2018-12-15T14:09:21.326Z,41.30
2018-12-15T14:11:48.545Z,41.30
2018-12-15T14:14:15.762Z,41.50
2018-12-15T14:16:43.795Z,41.40
2018-12-15T14:19:11.009Z,41.60
2018-12-15T14:21:38.218Z,41.40
2018-12-15T14:24:05.438Z,41.50
2018-12-15T14:26:33.167Z,41.40
2018-12-15T14:29:01.213Z,41.60
2018-12-15T14:31:29.258Z,41.50
2018-12-15T14:33:56.478Z,41.70
2018-12-15T14:36:23.691Z,41.80
2018-12-15T14:38:50.938Z,41.60
2018-12-15T14:41:18.151Z,41.80
2018-12-15T14:43:45.384Z,41.80
2018-12-15T14:46:13.506Z,41.80
2018-12-15T14:48:40.720Z,41.90
2018-12-15T14:51:07.926Z,42.00
2018-12-15T14:53:35.224Z,41.90
2018-12-15T14:56:02.458Z,42.10
2018-12-15T14:58:31.252Z,42.80
2018-12-15T15:00:59.873Z,42.10
2018-12-15T15:03:27.248Z,42.50
2018-12-15T15:05:55.264Z,42.10
2018-12-15T15:08:22.494Z,42.30
2018-12-15T15:10:49.699Z,42.20
2018-12-15T15:13:16.922Z,42.20
2018-12-15T15:15:44.950Z,42.00
2018-12-15T15:18:12.168Z,42.10
2018-12-15T15:20:39.398Z,42.00
2018-12-15T15:23:06.606Z,41.90
2018-12-15T15:25:33.869Z,41.80
2018-12-15T15:28:01.651Z,42.10
2018-12-15T15:30:29.163Z,42.30
2018-12-15T15:32:56.391Z,42.10
2018-12-15T15:35:23.653Z,41.90
2018-12-15T15:37:50.881Z,42.10
2018-12-15T15:40:18.099Z,42.10
2018-12-15T15:42:45.320Z,42.10
2018-12-15T15:45:13.485Z,42.20
2018-12-15T15:47:40.702Z,42.50
2018-12-15T15:50:07.920Z,42.40
2018-12-15T15:52:35.136Z,42.30
2018-12-15T15:55:02.355Z,42.50
2018-12-15T15:57:29.561Z,42.50
2018-12-15T15:59:56.771Z,42.50
2018-12-15T16:02:24.898Z,42.80
2018-12-15T16:04:52.111Z,42.60
2018-12-15T16:07:19.330Z,42.40
2018-12-15T16:09:47.342Z,42.50
2018-12-15T16:12:14.572Z,42.60
2018-12-15T16:14:41.790Z,42.70
2018-12-15T16:17:09.038Z,43.10
2018-12-15T16:19:36.253Z,43.00
2018-12-15T16:22:03.462Z,42.80
2018-12-15T16:24:31.403Z,42.80
2018-12-15T16:26:58.621Z,43.00
2018-12-15T16:29:25.834Z,43.00
2018-12-15T16:31:53.056Z,43.10
2018-12-15T16:34:20.272Z,42.90
2018-12-15T16:36:48.406Z,43.10
2018-12-15T16:39:15.637Z,43.00
2018-12-15T16:41:42.855Z,43.00
2018-12-15T16:44:10.091Z,43.00
2018-12-15T16:46:37.289Z,43.10
2018-12-15T16:49:06.019Z,43.20
2018-12-15T16:51:33.534Z,42.80
2018-12-15T16:54:02.244Z,42.90
2018-12-15T16:56:30.554Z,42.90
2018-12-15T16:58:58.691Z,43.00
2018-12-15T17:01:27.061Z,43.30
2018-12-15T17:03:54.328Z,43.10
2018-12-15T17:06:22.466Z,43.20
2018-12-15T17:08:49.735Z,43.00
2018-12-15T17:11:16.948Z,43.60
2018-12-15T17:13:44.224Z,43.20
2018-12-15T17:16:12.448Z,43.00
2018-12-15T17:18:40.534Z,43.00
2018-12-15T17:21:07.742Z,42.70
2018-12-15T17:23:35.915Z,43.20
2018-12-15T17:26:03.137Z,42.40
2018-12-15T17:28:31.875Z,42.50
2018-12-15T17:30:59.125Z,42.50
2018-12-15T17:33:27.163Z,42.70
2018-12-15T17:35:55.171Z,42.70
2018-12-15T17:38:23.238Z,42.70
2018-12-15T17:40:50.458Z,42.60
2018-12-15T17:43:17.711Z,43.10
2018-12-15T17:45:44.925Z,42.90
2018-12-15T17:48:12.141Z,43.20
2018-12-15T17:50:39.413Z,43.00
2018-12-15T17:53:07.559Z,42.50
2018-12-15T17:55:35.740Z,43.10
2018-12-15T17:58:03.766Z,43.00
2018-12-15T18:00:31.594Z,42.80
2018-12-15T18:02:58.796Z,43.10
2018-12-15T18:05:26.220Z,43.10
2018-12-15T18:07:54.362Z,43.00
2018-12-15T18:10:21.588Z,43.20
2018-12-15T18:12:48.805Z,43.10
2018-12-15T18:15:16.010Z,43.90
2018-12-15T18:17:43.230Z,43.10
2018-12-15T18:20:10.481Z,43.30
2018-12-15T18:22:38.531Z,43.20
2018-12-15T18:25:06.584Z,43.10
2018-12-15T18:27:34.588Z,43.30
2018-12-15T18:30:04.375Z,43.20
2018-12-15T18:32:32.437Z,43.40
2018-12-15T18:34:59.647Z,43.40
2018-12-15T18:37:27.825Z,43.50
2018-12-15T18:39:55.965Z,43.10
2018-12-15T18:42:23.212Z,43.50
2018-12-15T18:44:51.415Z,43.20
2018-12-15T18:47:18.627Z,43.20
2018-12-15T18:49:45.887Z,43.30
2018-12-15T18:52:13.123Z,43.40
2018-12-15T18:54:41.315Z,43.20
2018-12-15T18:57:08.933Z,43.20
2018-12-15T18:59:36.227Z,43.20
2018-12-15T19:02:03.448Z,43.60
2018-12-15T19:04:31.419Z,43.10
2018-12-15T19:06:58.643Z,42.90
2018-12-15T19:09:26.733Z,42.90
2018-12-15T19:11:53.952Z,43.00
2018-12-15T19:14:21.984Z,43.70
2018-12-15T19:16:50.116Z,43.00
2018-12-15T19:19:17.327Z,42.80
2018-12-15T19:21:45.355Z,42.90
2018-12-15T19:24:12.580Z,43.30
2018-12-15T19:26:40.599Z,42.60
2018-12-15T19:29:07.818Z,42.50
2018-12-15T19:31:35.036Z,42.80
2018-12-15T19:34:02.259Z,42.50
2018-12-15T19:36:30.412Z,42.70
2018-12-15T19:38:57.639Z,42.70
2018-12-15T19:41:24.908Z,42.70
2018-12-15T19:43:52.288Z,42.80
2018-12-15T19:46:19.502Z,42.70
2018-12-15T19:48:47.636Z,42.90
2018-12-15T19:51:15.826Z,42.90
2018-12-15T19:53:43.896Z,42.90
2018-12-15T19:56:12.126Z,43.00
2018-12-15T19:58:39.362Z,42.80
2018-12-15T20:01:06.748Z,43.00
2018-12-15T20:03:33.978Z,43.20
2018-12-15T20:06:01.879Z,42.90
2018-12-15T20:08:29.101Z,42.90
2018-12-15T20:10:57.279Z,42.90
2018-12-15T20:13:24.537Z,42.90
2018-12-15T20:15:51.756Z,42.90
2018-12-15T20:18:18.999Z,43.00
2018-12-15T20:20:46.230Z,43.00
2018-12-15T20:23:14.343Z,43.00
2018-12-15T20:25:41.573Z,43.10
2018-12-15T20:28:08.849Z,43.20
2018-12-15T20:30:36.073Z,43.20
2018-12-15T20:33:03.321Z,43.00
2018-12-15T20:35:31.584Z,43.20
2018-12-15T20:37:58.862Z,43.20
2018-12-15T20:40:26.892Z,43.20
2018-12-15T20:42:54.116Z,43.20
2018-12-15T20:45:21.331Z,43.20
2018-12-15T20:47:48.562Z,43.20
2018-12-15T20:50:16.634Z,43.10
2018-12-15T20:52:47.531Z,43.30
2018-12-15T20:55:13.320Z,43.20
2018-12-15T20:57:40.542Z,43.20
2018-12-15T21:00:08.559Z,43.00
2018-12-15T21:02:35.836Z,43.00
2018-12-15T21:05:04.111Z,42.80
2018-12-15T21:07:31.426Z,42.70
2018-12-15T21:09:58.654Z,42.70
2018-12-15T21:12:25.898Z,43.10
2018-12-15T21:14:54.158Z,43.50
2018-12-15T21:17:21.357Z,43.00
2018-12-15T21:19:49.582Z,43.20
2018-12-15T21:22:16.802Z,43.10
2018-12-15T21:24:44.043Z,43.30
2018-12-15T21:27:12.202Z,43.70
2018-12-15T21:29:39.572Z,43.90
2018-12-15T21:32:07.728Z,43.10
2018-12-15T21:34:35.774Z,43.30
2018-12-15T21:37:03.808Z,43.40
2018-12-15T21:39:31.581Z,43.40
2018-12-15T21:41:58.854Z,43.60
2018-12-15T21:44:26.149Z,43.50
2018-12-15T21:46:53.447Z,43.50
2018-12-15T21:49:20.790Z,43.30
2018-12-15T21:51:49.011Z,43.20
2018-12-15T21:54:17.052Z,43.50
2018-12-15T21:56:44.369Z,43.50
2018-12-15T21:59:11.592Z,43.30
2018-12-15T22:01:38.867Z,43.60
2018-12-15T22:04:06.082Z,43.30
2018-12-15T22:06:34.248Z,43.30
2018-12-15T22:09:02.406Z,43.20
2018-12-15T22:11:29.631Z,43.40
2018-12-15T22:13:56.912Z,43.40
2018-12-15T22:16:24.118Z,43.40
2018-12-15T22:18:52.188Z,43.30
2018-12-15T22:21:19.402Z,43.40
2018-12-15T22:23:47.576Z,43.40
2018-12-15T22:26:15.739Z,43.40
2018-12-15T22:28:43.905Z,43.20
2018-12-15T22:31:11.917Z,43.20
2018-12-15T22:33:39.185Z,43.40
2018-12-15T22:36:07.317Z,43.40
2018-12-15T22:38:35.473Z,43.50
2018-12-15T22:41:02.688Z,43.40
2018-12-15T22:43:29.991Z,43.80
2018-12-15T22:45:58.270Z,44.00
2018-12-15T22:48:25.475Z,43.20
2018-12-15T22:50:52.729Z,43.40
2018-12-15T22:53:20.727Z,43.00
2018-12-15T22:55:47.980Z,42.80
2018-12-15T22:58:15.191Z,42.80
2018-12-15T23:03:39.840Z,42.60
2018-12-15T23:06:07.900Z,42.90
2018-12-15T23:08:35.148Z,42.90
2018-12-15T23:11:02.371Z,43.10
2018-12-15T23:13:30.393Z,42.90
2018-12-15T23:15:57.609Z,43.00
2018-12-15T23:18:24.818Z,43.20
2018-12-15T23:20:52.037Z,43.00
2018-12-15T23:23:20.194Z,43.10
2018-12-15T23:25:48.362Z,43.00
2018-12-15T23:28:16.601Z,43.10
2018-12-15T23:30:44.614Z,43.20
2018-12-15T23:33:12.769Z,43.30
2018-12-15T23:35:39.984Z,43.10
2018-12-15T23:38:07.989Z,43.10
2018-12-15T23:40:35.213Z,43.00
2018-12-15T23:43:02.427Z,43.20
2018-12-15T23:45:29.652Z,43.10
2018-12-15T23:47:56.882Z,43.00
2018-12-15T23:50:25.072Z,43.00
2018-12-15T23:52:52.295Z,43.10
2018-12-15T23:55:20.986Z,43.20
2018-12-15T23:57:48.401Z,43.30
